Flight Track Log - Related Links

Times and Time Zones

All times are in EDT time to prevent confusion due to time zone crossing. See the ASQ4537 flight status page for this flight to view local times or setup timezone preferences in your user account.

Time Position Orientation Groundspeed Altitude Reporting Facility
EDT Latitude Longitude Course Direction KTS MPH feet Rate Location/Type
Sun 06:14:44 PM 42.0000 -87.8333 77° East 202 232 3,500  Level Chicago TRACON
Sun 06:16:10 PM 42.0111 -87.7119 83° East 239 275 6,700 2,432 Climbing Chicago Center
Sun 06:17:12 PM 42.0258 -87.6175 78° East 258 297 9,500 2,256 Climbing Chicago Center
Sun 06:18:15 PM 42.0456 -87.4947 78° East 275 316 11,400 1,452 Climbing Chicago Center
Sun 06:19:16 PM 42.0647 -87.3678 78° East 331 381 12,500 1,415 Climbing Chicago Center
Sun 06:20:00 PM 42.0843 -87.1440 77° East  Level FlightAware Approximate
Sun 06:20:18 PM 42.0847 -87.2364 78° East 355 409 14,300  Level Chicago Center
Sun 06:21:21 PM 42.1053 -87.1047 78° East 360 414 16,200 1,872 Climbing Chicago Center
Sun 06:22:23 PM 42.1147 -86.9711 85° East 361 415 18,200 2,081 Climbing Chicago Center
Sun 06:23:25 PM 42.1203 -86.8117 87° East 356 410 20,500 1,355 Climbing Chicago Center
Sun 06:24:27 PM 42.1267 -86.6764 86° East 363 418 21,000 242 Climbing Chicago Center
Sun 06:25:29 PM 42.1311 -86.5108 88° East 413 475 21,000  Level Chicago Center
Sun 06:26:31 PM 42.1369 -86.3475 87° East 433 498 21,000  Level Chicago Center
Sun 06:27:33 PM 42.1419 -86.1850 88° East 434 499 21,000  Level Chicago Center
Sun 06:28:35 PM 42.1417 -86.0236 90° East 432 497 21,000  Level Chicago Center
Sun 06:29:37 PM 42.1369 -85.8461 92° East 426 490 21,000  Level Chicago Center
Sun 06:30:39 PM 42.1322 -85.6872 92° East 428 493 21,000  Level Chicago Center
Sun 06:32:16 PM 42.1261 -85.4414 92° East 432 497 21,000  Level Cleveland Center
Sun 06:33:16 PM 42.1225 -85.2786 92° East 432 497 21,000  Level Cleveland Center
Sun 06:34:16 PM 42.1161 -85.1214 93° East 427 491 21,000  Level Cleveland Center
Sun 06:34:48 PM 42.1128 -85.0181 92° East 431 496 21,000  Level Chicago Center
Sun 06:35:50 PM 42.1072 -84.8569 93° East 431 496 21,000  Level Chicago Center
Sun 06:36:52 PM 42.1006 -84.6975 93° East 430 495 21,000  Level Chicago Center
Sun 06:37:54 PM 42.0950 -84.5356 93° East 433 498 21,000  Level Chicago Center
Sun 06:38:56 PM 42.0889 -84.3753 93° East 432 497 21,000  Level Chicago Center
Sun 06:39:58 PM 42.0811 -84.2139 94° East 433 498 21,000  Level Chicago Center
Sun 06:41:16 PM 42.0703 -83.9736 93° East 427 491 21,000  Level Cleveland Center
Sun 06:42:16 PM 42.0625 -83.8164 94° East 427 491 21,000  Level Cleveland Center
Sun 06:43:16 PM 42.0558 -83.6736 94° East 403 464 21,000  Level Cleveland Center
Sun 06:44:16 PM 42.0492 -83.5333 94° East 387 445 21,000  Level Cleveland Center
Sun 06:45:16 PM 42.0381 -83.3903 96° East 378 435 21,000  Level Cleveland Center
Sun 06:46:16 PM 42.0269 -83.2472 96° East 378 435 21,000  Level Cleveland Center
Sun 06:47:16 PM 42.0133 -83.1181 98° East 383 441 21,000  Level Cleveland Center
Sun 06:48:16 PM 41.9997 -82.9750 97° East 388 447 21,000 -600 Level Cleveland Center
Sun 06:49:16 PM 41.9858 -82.8319 97° East 388 447 19,800 -2,000 Descending Cleveland Center
Sun 06:50:16 PM 41.9700 -82.6806 98° East 400 460 17,000 -2,690 Descending Cleveland Center
Sun 06:51:12 PM 41.9517 -82.5403 100° East 397 457 14,600 -2,300 Descending Cleveland Center
Sun 06:52:16 PM 41.9100 -82.4022 112° Southeast 393 452 12,400 -1,887 Descending Cleveland Center
Sun 06:53:16 PM 41.8703 -82.2728 112° Southeast 381 438 10,700 -1,150 Descending Cleveland Center
Sun 06:54:16 PM 41.8242 -82.1547 118° Southeast 369 425 10,100 -305 Descending Cleveland Center
Sun 06:55:14 PM 41.7314 -82.0744 147° Southeast 362 417 10,100 -319 Level Cleveland Center
Sun 06:56:09 PM 41.6633 -82.0172 148° Southeast 294 338 9,500 -1,156 Descending Cleveland Center
Sun 06:57:03 PM 41.6056 -81.9689 148° Southeast 279 321 8,000 -1,181 Descending Cleveland Center
Sun 06:58:16 PM 41.5231 -81.9033 149° Southeast 280 322 7,000 -541 Descending Cleveland Center
Sun 06:59:16 PM 41.4581 -81.9131 186° South 235 270 6,800 -750 Descending Cleveland Center
Sun 07:00:16 PM 41.4261 -81.9789 237° Southwest 198 228 5,500 -1,525 Descending Cleveland Center
Sun 07:01:18 PM 41.3878 -82.0417 231° Southwest 221 254 3,700 -1,366 Descending Cleveland Center
Sun 07:02:19 PM 41.3467 -81.9964 140° Southeast 186 214 2,700 -984 Descending Cleveland Center

Login

Don't have an account? Register now (free) for customized features, flight alerts, and more!